Terminal Aerodrome Forecast
Issued by NWS

Home | Current Version | Previous Version | Text Only | Print | Product List | Glossary On
Versions: 1 2 3 4 5 6 7 8 9 10 11 12 13 14 15 16 17 18 19 20 21 22 23
000
FTUS41 KBTV 021500 AAB
TAFMSS
TAF AMD
KMSS 021512Z 0215/0312 23012KT P6SM SCT040
      TEMPO 0215/0217 BKN018
     FM022000 23012KT 5SM -TSRA BKN035CB
     FM022300 25010KT P6SM SCT040=

USA.gov is the U.S. government's official web portal to all federal, state and local government web resources and services.